Time;durP1;ratioP1;P1;durP2;ratioP2;P2;SDS_P1;SDS_P2;PMS_P1;PMS_P2;Temp;Humidity;BMP_temperature;BMP_pressure;BME280_temperature;BME280_humidity;BME280_pressure;Samples;Min_cycle;Max_cycle;Signal;HPM_P1;HPM_P2
2021/11/19 00:00:55;;;;;;;5.10;3.83;;;;;;;7.48;100.00;99774.31;5033298;28;20429;-59
2021/11/19 00:03:21;;;;;;;2.50;2.30;;;;;;;7.76;100.00;99773.81;5033080;28;20029;-56
2021/11/19 00:05:48;;;;;;;5.53;3.67;;;;;;;7.71;100.00;99768.66;5035223;28;20537;-58
2021/11/19 00:08:17;;;;;;;3.67;2.80;;;;;;;7.82;99.22;99761.09;5032318;28;20037;-59
2021/11/19 00:10:43;;;;;;;4.20;2.93;;;;;;;7.95;97.51;99752.72;5033356;28;20034;-59
2021/11/19 00:13:09;;;;;;;3.20;2.30;;;;;;;7.88;98.35;99739.88;5036206;28;20096;-58
2021/11/19 00:15:35;;;;;;;3.57;3.23;;;;;;;7.81;99.67;99754.25;5033234;28;20136;-59
2021/11/19 00:18:04;;;;;;;2.90;2.70;;;;;;;7.74;100.00;99762.72;5031655;28;20471;-59
2021/11/19 00:20:31;;;;;;;3.97;3.27;;;;;;;7.64;100.00;99753.22;5034729;28;20939;-61
2021/11/19 00:22:59;;;;;;;2.97;2.60;;;;;;;7.56;100.00;99757.41;5036534;28;20120;-59
2021/11/19 00:25:25;;;;;;;5.33;3.47;;;;;;;7.44;100.00;99750.47;5033687;28;20160;-59
2021/11/19 00:27:52;;;;;;;6.00;4.43;;;;;;;7.39;100.00;99748.69;5033257;28;20037;-61
2021/11/19 00:30:19;;;;;;;4.87;4.37;;;;;;;7.31;100.00;99754.56;5036279;28;20041;-59
2021/11/19 00:32:46;;;;;;;7.53;4.40;;;;;;;7.29;100.00;99750.31;5036017;28;20056;-58
2021/11/19 00:35:13;;;;;;;6.20;4.30;;;;;;;7.27;100.00;99757.06;5034884;28;20033;-59
2021/11/19 00:37:41;;;;;;;5.83;3.93;;;;;;;7.25;100.00;99764.72;5033583;28;20068;-60
2021/11/19 00:40:20;;;;;;;4.43;4.03;;;;;;;7.26;100.00;99760.44;5033796;28;20387;-59
2021/11/19 00:42:45;;;;;;;5.77;4.30;;;;;;;7.22;100.00;99751.91;5031980;28;20072;-60
2021/11/19 00:45:11;;;;;;;8.47;4.60;;;;;;;7.13;100.00;99743.31;5032480;28;20410;-58
2021/11/19 00:47:37;;;;;;;4.57;4.10;;;;;;;7.16;100.00;99762.06;5032590;28;20025;-58
2021/11/19 00:50:07;;;;;;;4.43;3.40;;;;;;;7.18;100.00;99767.16;5034342;28;20040;-60
2021/11/19 00:52:33;;;;;;;6.67;4.60;;;;;;;7.14;100.00;99760.31;5036256;28;20072;-59
2021/11/19 00:54:58;;;;;;;6.30;3.93;;;;;;;7.07;100.00;99761.94;5033019;28;20112;-59
2021/11/19 00:57:24;;;;;;;9.57;6.20;;;;;;;7.10;100.00;99759.41;5032826;28;20090;-60
2021/11/19 00:59:49;;;;;;;9.83;5.43;;;;;;;7.13;100.00;99756.88;5034572;28;20348;-59
2021/11/19 01:02:22;;;;;;;11.10;5.80;;;;;;;7.16;100.00;99754.41;5035837;28;20028;-59
2021/11/19 01:04:48;;;;;;;9.10;5.23;;;;;;;7.13;100.00;99751.78;5032235;28;20454;-59
2021/11/19 01:07:16;;;;;;;9.20;5.93;;;;;;;7.14;100.00;99735.66;5033295;28;20090;-59
2021/11/19 01:09:45;;;;;;;10.10;6.57;;;;;;;7.14;100.00;99720.34;5034176;28;20025;-60
2021/11/19 01:12:14;;;;;;;13.00;8.10;;;;;;;7.18;100.00;99723.78;5032653;28;20527;-60
2021/11/19 01:14:45;;;;;;;14.13;9.70;;;;;;;7.24;100.00;99714.53;5035712;28;20095;-59
2021/11/19 01:17:20;;;;;;;15.20;9.37;;;;;;;7.32;100.00;99717.19;5037487;28;20450;-60
2021/11/19 01:20:01;;;;;;;12.95;7.15;;;;;;;7.32;100.00;99718.03;5034182;28;20505;-60
2021/11/19 01:22:29;;;;;;;6.97;4.90;;;;;;;7.32;100.00;99706.97;5033769;28;20586;-60
2021/11/19 01:24:55;;;;;;;5.20;3.90;;;;;;;7.55;100.00;99709.78;5032817;28;20410;-61
2021/11/19 01:27:22;;;;;;;5.23;3.50;;;;;;;7.56;100.00;99701.25;5038716;28;20029;-61
2021/11/19 01:29:49;;;;;;;4.20;3.80;;;;;;;7.69;100.00;99716.72;5038899;28;20052;-61
2021/11/19 01:32:21;;;;;;;5.37;3.90;;;;;;;7.68;100.00;99704.78;5032034;28;20032;-60
2021/11/19 01:34:48;;;;;;;5.10;3.70;;;;;;;7.63;100.00;99705.59;5034643;28;20036;-61
2021/11/19 01:37:14;;;;;;;4.90;4.10;;;;;;;7.80;100.00;99704.06;5036088;28;20033;-60
2021/11/19 01:39:41;;;;;;;4.90;4.37;;;;;;;8.14;100.00;99710.31;5033702;28;20392;-60
2021/11/19 01:42:11;;;;;;;4.73;3.83;;;;;;;8.42;95.94;99698.63;5039735;28;20044;-60
2021/11/19 01:45:00;;;;;;;5.53;4.67;;;;;;;8.57;94.18;99693.63;5036558;28;20064;-58
2021/11/19 01:47:27;;;;;;;5.57;3.67;;;;;;;8.75;92.15;99692.84;5038437;28;20105;-60
2021/11/19 01:49:53;;;;;;;4.33;3.93;;;;;;;8.82;90.00;99686.94;5038882;28;20037;-60
2021/11/19 01:52:25;;;;;;;4.27;3.50;;;;;;;8.85;89.52;99677.59;5034793;28;20393;-59
2021/11/19 01:54:55;;;;;;;3.83;3.13;;;;;;;8.85;90.35;99682.69;5036214;28;20404;-59
2021/11/19 01:57:30;;;;;;;4.27;3.60;;;;;;;8.96;88.31;99683.59;5039985;28;20124;-59
2021/11/19 02:00:19;;;;;;;3.95;3.55;;;;;;;8.92;89.35;99681.88;5039056;28;20029;-60
2021/11/19 02:02:48;;;;;;;4.93;3.90;;;;;;;8.97;88.05;99685.31;5035551;28;20048;-60
2021/11/19 02:05:22;;;;;;;5.40;3.90;;;;;;;9.05;85.80;99681.06;5035623;28;20021;-59
2021/11/19 02:07:51;;;;;;;4.40;4.00;;;;;;;9.14;84.87;99672.59;5042136;28;20033;-59
2021/11/19 02:10:41;;;;;;;6.37;4.03;;;;;;;9.23;84.12;99679.44;5035354;28;20044;-60
2021/11/19 02:13:22;;;;;;;4.83;3.47;;;;;;;9.23;84.43;99682.84;5038231;28;20057;-60
2021/11/19 02:15:47;;;;;;;4.87;3.73;;;;;;;9.24;83.56;99682.00;5037583;28;20032;-60
2021/11/19 02:18:35;;;;;;;5.13;3.73;;;;;;;9.26;83.13;99676.88;5038309;28;20033;-60
2021/11/19 02:21:25;;;;;;;4.53;3.83;;;;;;;9.30;83.10;99676.91;5034631;28;20028;-60
2021/11/19 02:24:21;;;;;;;4.73;3.90;;;;;;;9.24;83.25;99670.91;5035301;28;20045;-60
2021/11/19 02:26:55;;;;;;;4.00;3.60;;;;;;;9.30;82.30;99666.66;5042084;28;20038;-60
2021/11/19 02:29:21;;;;;;;4.40;3.50;;;;;;;9.22;82.00;99664.94;5036581;28;20029;-60
2021/11/19 02:31:49;;;;;;;4.33;3.67;;;;;;;9.27;82.51;99666.66;5036323;28;20036;-59
2021/11/19 02:34:15;;;;;;;4.87;3.87;;;;;;;9.25;81.72;99662.41;5037243;28;20036;-61
2021/11/19 02:36:49;;;;;;;4.40;3.90;;;;;;;9.25;82.46;99665.78;5040437;28;20044;-59
2021/11/19 02:39:16;;;;;;;6.10;4.20;;;;;;;9.33;82.36;99665.84;5035784;28;20068;-58
2021/11/19 02:41:46;;;;;;;5.53;4.53;;;;;;;9.28;83.45;99668.38;5038854;28;20033;-58
2021/11/19 02:44:14;;;;;;;6.53;5.03;;;;;;;9.07;88.32;99661.50;5039419;28;20037;-59
2021/11/19 02:46:45;;;;;;;5.50;5.00;;;;;;;8.97;91.44;99654.63;5036919;28;20490;-60
2021/11/19 02:49:10;;;;;;;7.47;6.07;;;;;;;8.89;92.98;99656.28;5032429;28;20149;-59
2021/11/19 02:51:37;;;;;;;7.17;5.70;;;;;;;8.77;94.72;99650.28;5035152;28;20115;-58
2021/11/19 02:54:06;;;;;;;6.57;4.60;;;;;;;8.90;93.91;99632.44;5040412;28;20505;-56
2021/11/19 02:56:32;;;;;;;6.17;5.23;;;;;;;8.96;90.13;99626.47;5037634;28;20024;-58
2021/11/19 02:59:00;;;;;;;5.87;4.57;;;;;;;9.00;87.94;99620.50;5038439;28;20506;-58
2021/11/19 03:01:33;;;;;;;5.37;4.47;;;;;;;9.06;85.24;99615.44;5037793;28;20467;-58
2021/11/19 03:04:04;;;;;;;3.93;3.40;;;;;;;9.19;83.35;99619.72;5044459;28;20037;-59
2021/11/19 03:06:42;;;;;;;5.20;4.30;;;;;;;9.20;81.96;99623.16;5034383;28;20677;-60
2021/11/19 03:09:09;;;;;;;4.70;4.20;;;;;;;9.31;81.02;99634.25;5039073;28;20037;-60
2021/11/19 03:11:35;;;;;;;3.97;3.57;;;;;;;9.40;79.17;99629.16;5039332;28;20116;-59
2021/11/19 03:14:04;;;;;;;4.87;3.83;;;;;;;9.49;77.81;99629.16;5039889;28;20033;-59
2021/11/19 03:16:30;;;;;;;6.00;3.80;;;;;;;9.47;77.48;99634.28;5034155;28;20060;-60
2021/11/19 03:18:56;;;;;;;5.13;3.77;;;;;;;9.51;78.00;99627.44;5035334;28;20041;-59
2021/11/19 03:21:21;;;;;;;4.35;3.95;;;;;;;9.56;77.48;99636.00;5041068;28;20032;-59
2021/11/19 03:23:48;;;;;;;6.10;4.50;;;;;;;9.50;77.41;99636.00;5035884;28;20037;-60
2021/11/19 03:26:14;;;;;;;4.88;4.05;;;;;;;9.51;77.42;99637.69;5035704;28;20029;-58
2021/11/19 03:28:44;;;;;;;5.00;4.20;;;;;;;9.59;77.19;99633.44;5033117;28;20037;-58
2021/11/19 03:31:11;;;;;;;5.13;4.13;;;;;;;9.56;77.59;99636.00;5036129;28;20180;-58
2021/11/19 03:33:39;;;;;;;4.83;3.83;;;;;;;9.65;77.33;99636.00;5037448;28;20083;-55
2021/11/19 03:36:07;;;;;;;5.15;4.32;;;;;;;9.60;78.33;99641.13;5032924;28;20025;-59
2021/11/19 03:38:34;;;;;;;4.37;3.97;;;;;;;9.47;80.12;99641.09;5032618;28;20878;-59
2021/11/19 03:41:02;;;;;;;4.80;3.90;;;;;;;9.51;79.94;99632.56;5036940;28;20037;-57
2021/11/19 03:43:31;;;;;;;5.57;4.00;;;;;;;9.56;78.83;99628.31;5035293;28;20029;-58
2021/11/19 03:46:00;;;;;;;5.07;4.30;;;;;;;9.53;79.19;99620.66;5033018;28;20515;-57
2021/11/19 03:48:27;;;;;;;5.27;4.67;;;;;;;9.43;80.48;99642.81;5036029;28;20036;-60
2021/11/19 03:51:00;;;;;;;5.27;4.10;;;;;;;9.40;81.37;99640.25;5036842;28;20037;-60
2021/11/19 03:53:27;;;;;;;4.27;3.83;;;;;;;9.41;81.54;99646.22;5036852;28;20033;-56
2021/11/19 03:55:55;;;;;;;5.43;4.10;;;;;;;9.40;81.76;99641.94;5034624;28;20036;-56
2021/11/19 03:58:24;;;;;;;5.80;3.93;;;;;;;9.43;80.16;99641.94;5035365;28;20120;-56
2021/11/19 04:00:56;;;;;;;6.20;5.10;;;;;;;9.48;78.37;99653.91;5035843;28;20036;-56
2021/11/19 04:03:22;;;;;;;5.20;4.33;;;;;;;9.48;79.15;99643.69;5034436;28;20057;-58
2021/11/19 04:05:49;;;;;;;4.77;4.30;;;;;;;9.47;79.34;99646.22;5033586;28;20111;-63
2021/11/19 04:08:15;;;;;;;5.10;3.93;;;;;;;9.41;80.85;99636.84;5036330;28;20029;-59
2021/11/19 04:10:41;;;;;;;5.50;4.00;;;;;;;9.34;82.87;99644.47;5036226;28;20036;-60
2021/11/19 04:13:08;;;;;;;7.70;4.60;;;;;;;9.25;84.32;99640.19;5035040;28;20386;-62
2021/11/19 04:15:38;;;;;;;4.68;3.97;;;;;;;9.21;83.86;99653.00;5033510;28;20033;-60
2021/11/19 04:18:04;;;;;;;5.43;4.53;;;;;;;9.15;85.86;99654.69;5036880;28;20044;-60
2021/11/19 04:20:30;;;;;;;5.83;4.27;;;;;;;9.19;84.25;99655.56;5037164;28;20383;-60
2021/11/19 04:22:55;;;;;;;5.37;4.57;;;;;;;9.32;83.03;99656.44;5031221;28;20029;-60
2021/11/19 04:25:23;;;;;;;7.13;4.63;;;;;;;9.40;82.73;99664.97;5032893;28;20030;-60
2021/11/19 04:27:49;;;;;;;6.47;4.85;;;;;;;9.34;82.49;99667.50;5035081;28;20087;-61
2021/11/19 04:30:18;;;;;;;6.43;5.28;;;;;;;9.34;82.82;99677.75;5036323;28;20033;-56
2021/11/19 04:32:44;;;;;;;7.87;4.77;;;;;;;9.30;82.83;99670.91;5031650;28;20061;-57
2021/11/19 04:35:10;;;;;;;5.47;4.53;;;;;;;9.43;82.94;99675.22;5031183;28;20135;-56
2021/11/19 04:37:37;;;;;;;7.60;5.17;;;;;;;9.29;84.25;99670.09;5034720;28;20032;-57
2021/11/19 04:40:04;;;;;;;6.10;4.60;;;;;;;9.32;83.85;99664.13;5034776;28;20460;-60
2021/11/19 04:42:29;;;;;;;7.27;5.33;;;;;;;9.33;84.45;99673.50;5033453;28;20518;-57
2021/11/19 04:44:55;;;;;;;10.60;6.23;;;;;;;9.33;84.96;99651.34;5033257;28;20407;-58
2021/11/19 04:47:21;;;;;;;8.63;5.93;;;;;;;9.32;84.75;99651.31;5036357;28;20025;-58
2021/11/19 04:49:46;;;;;;;9.73;6.13;;;;;;;9.35;85.22;99651.31;5036461;28;20063;-59
2021/11/19 04:52:14;;;;;;;8.97;6.30;;;;;;;9.29;87.63;99648.75;5033277;28;20588;-58
2021/11/19 04:54:40;;;;;;;6.90;6.13;;;;;;;9.28;87.58;99641.94;5033464;28;20171;-56
2021/11/19 04:57:07;;;;;;;7.13;5.33;;;;;;;9.29;86.91;99651.31;5034019;28;20111;-59
2021/11/19 04:59:33;;;;;;;8.60;6.13;;;;;;;9.28;87.39;99639.38;5034436;28;20044;-58
2021/11/19 05:02:04;;;;;;;9.67;6.37;;;;;;;9.25;87.65;99639.38;5033849;28;20604;-55
2021/11/19 05:04:29;;;;;;;8.43;6.60;;;;;;;9.24;87.28;99638.50;5033958;28;20128;-59
2021/11/19 05:06:55;;;;;;;7.03;5.90;;;;;;;9.32;85.81;99631.72;5034419;28;20116;-59
2021/11/19 05:09:21;;;;;;;8.27;6.67;;;;;;;9.24;85.94;99623.16;5032912;28;20040;-59
2021/11/19 05:11:49;;;;;;;8.27;6.83;;;;;;;9.33;85.25;99627.44;5032103;28;20033;-59
2021/11/19 05:14:16;;;;;;;7.43;5.53;;;;;;;9.32;83.80;99636.81;5034712;28;20115;-58
2021/11/19 05:16:41;;;;;;;8.37;6.57;;;;;;;9.30;83.98;99620.59;5038948;28;20064;-58
2021/11/19 05:19:07;;;;;;;8.37;6.00;;;;;;;9.30;83.75;99619.75;5038861;28;20111;-59
2021/11/19 05:21:34;;;;;;;8.73;6.53;;;;;;;9.31;84.60;99616.34;5040098;28;20437;-58
2021/11/19 05:24:00;;;;;;;6.77;5.43;;;;;;;9.31;84.52;99619.75;5035093;28;20143;-56
2021/11/19 05:26:28;;;;;;;7.30;5.27;;;;;;;9.27;84.82;99618.03;5034937;28;20028;-57
2021/11/19 05:28:55;;;;;;;6.80;5.10;;;;;;;9.26;84.61;99615.47;5038649;28;20099;-58
2021/11/19 05:31:21;;;;;;;5.90;5.20;;;;;;;9.22;84.93;99595.84;5039615;28;20223;-56
2021/11/19 05:33:46;;;;;;;6.80;5.57;;;;;;;9.22;84.99;99617.19;5041037;28;20135;-59
2021/11/19 05:36:13;;;;;;;7.73;5.73;;;;;;;9.30;83.51;99605.25;5035095;28;20039;-56
2021/11/19 05:38:39;;;;;;;9.50;5.80;;;;;;;9.32;82.50;99595.88;5037881;28;20033;-58
2021/11/19 05:41:10;;;;;;;5.93;4.73;;;;;;;9.31;82.99;99583.94;5043259;28;20061;-59
2021/11/19 05:43:39;;;;;;;7.13;5.10;;;;;;;9.24;82.17;99576.25;5034620;28;20037;-59
2021/11/19 05:46:06;;;;;;;8.30;4.80;;;;;;;9.31;79.78;99576.25;5036306;28;20076;-58
2021/11/19 05:48:31;;;;;;;5.93;5.10;;;;;;;9.37;78.69;99572.84;5040985;28;20033;-55
2021/11/19 05:50:57;;;;;;;7.03;5.57;;;;;;;9.31;80.25;99593.31;5044799;28;20091;-58
2021/11/19 05:53:23;;;;;;;7.53;5.73;;;;;;;9.33;78.91;99592.47;5037835;28;20032;-59
2021/11/19 05:55:49;;;;;;;7.03;5.13;;;;;;;9.33;78.29;99599.28;5034749;28;20021;-58
2021/11/19 05:58:16;;;;;;;5.93;4.67;;;;;;;9.36;76.91;99599.28;5040316;28;20037;-58
2021/11/19 06:00:48;;;;;;;6.70;5.27;;;;;;;9.45;76.42;99597.59;5040620;28;20037;-58
2021/11/19 06:03:14;;;;;;;6.17;5.37;;;;;;;9.47;75.50;99595.03;5035373;28;20474;-59
2021/11/19 06:05:40;;;;;;;6.70;5.17;;;;;;;9.49;76.00;99596.75;5038864;28;20029;-59
2021/11/19 06:08:06;;;;;;;6.27;4.73;;;;;;;9.47;75.43;99595.88;5042425;28;20399;-59
2021/11/19 06:10:33;;;;;;;6.33;4.13;;;;;;;9.48;75.00;99591.63;5036010;28;20387;-57
2021/11/19 06:13:08;;;;;;;8.50;6.13;;;;;;;9.43;74.89;99604.41;5034233;28;20036;-59
2021/11/19 06:15:40;;;;;;;6.82;4.53;;;;;;;9.58;72.32;99609.56;5038323;28;20033;-59
2021/11/19 06:18:11;;;;;;;4.93;4.20;;;;;;;9.62;71.86;99608.72;5039252;28;20499;-59
2021/11/19 06:20:41;;;;;;;5.33;4.50;;;;;;;9.69;70.08;99606.13;5041922;28;20115;-56
2021/11/19 06:23:12;;;;;;;4.83;4.33;;;;;;;9.79;68.73;99605.28;5042965;28;20104;-59
2021/11/19 06:25:39;;;;;;;5.03;4.10;;;;;;;9.76;68.50;99598.44;5035162;28;20025;-58
2021/11/19 06:28:07;;;;;;;4.90;4.40;;;;;;;9.77;69.75;99592.47;5039158;28;20090;-59
2021/11/19 06:30:33;;;;;;;4.53;4.00;;;;;;;9.58;71.47;99594.22;5037084;28;20151;-59
2021/11/19 06:32:59;;;;;;;4.80;3.97;;;;;;;9.62;71.30;99595.06;5038209;28;20439;-59
2021/11/19 06:35:24;;;;;;;4.93;4.15;;;;;;;9.66;69.77;99594.19;5040160;28;20025;-59
2021/11/19 06:37:50;;;;;;;7.57;5.10;;;;;;;9.66;70.48;99594.19;5036398;28;20078;-59
2021/11/19 06:40:25;;;;;;;11.05;7.15;;;;;;;9.66;71.79;99595.91;5039010;28;20033;-58
2021/11/19 06:42:52;;;;;;;6.10;5.15;;;;;;;9.58;72.90;99595.91;5034615;28;20044;-58
2021/11/19 06:45:18;;;;;;;5.35;4.68;;;;;;;9.57;72.71;99589.94;5041373;28;20098;-55
2021/11/19 06:47:44;;;;;;;5.70;4.63;;;;;;;9.60;73.02;99594.19;5041451;28;20128;-58
2021/11/19 06:50:12;;;;;;;5.30;4.30;;;;;;;9.63;75.03;99586.53;5038752;28;20472;-59
2021/11/19 06:52:38;;;;;;;5.25;4.75;;;;;;;9.86;70.33;99582.22;5039141;28;20025;-58
2021/11/19 06:55:06;;;;;;;5.90;4.22;;;;;;;9.95;69.60;99579.66;5039467;28;20061;-57
2021/11/19 06:57:32;;;;;;;7.78;4.60;;;;;;;9.96;68.57;99581.38;5041683;28;20657;-57
2021/11/19 06:59:57;;;;;;;4.97;4.22;;;;;;;10.05;67.52;99581.38;5035145;28;20036;-58
2021/11/19 07:02:23;;;;;;;5.32;4.22;;;;;;;10.06;68.26;99585.63;5037643;28;20025;-57
2021/11/19 07:04:48;;;;;;;5.18;4.28;;;;;;;10.22;66.14;99585.63;5036937;28;20036;-58
2021/11/19 07:07:14;;;;;;;6.28;5.00;;;;;;;10.15;66.89;99583.88;5035318;28;20032;-58
2021/11/19 07:09:41;;;;;;;5.97;3.85;;;;;;;10.09;68.61;99589.91;5034389;28;20029;-59
2021/11/19 07:12:10;;;;;;;6.05;3.83;;;;;;;10.14;70.60;99592.47;5037246;28;20048;-58
2021/11/19 07:14:37;;;;;;;6.07;5.05;;;;;;;10.10;71.81;99589.03;5038207;28;20032;-59
2021/11/19 07:17:05;;;;;;;6.03;3.97;;;;;;;10.08;72.39;99599.28;5037845;28;20041;-59
2021/11/19 07:19:32;;;;;;;5.15;4.00;;;;;;;10.19;71.46;99595.88;5034943;28;20029;-60
2021/11/19 07:21:58;;;;;;;4.82;3.88;;;;;;;10.18;71.53;99604.44;5034778;28;20040;-58
2021/11/19 07:24:24;;;;;;;6.55;4.90;;;;;;;10.14;72.52;99616.38;5033303;28;20033;-56
2021/11/19 07:26:49;;;;;;;6.00;4.85;;;;;;;10.19;74.42;99622.34;5037428;28;20650;-55
2021/11/19 07:29:15;;;;;;;5.63;4.65;;;;;;;10.23;73.31;99630.88;5033784;28;20137;-55
2021/11/19 07:31:41;;;;;;;5.78;4.95;;;;;;;10.16;73.75;99634.31;5036718;28;20399;-60
2021/11/19 07:34:06;;;;;;;5.75;4.90;;;;;;;10.27;72.96;99625.75;5038386;28;20064;-57
2021/11/19 07:36:32;;;;;;;6.20;5.10;;;;;;;10.23;74.80;99630.88;5032970;28;20045;-59
2021/11/19 07:38:58;;;;;;;6.35;5.05;;;;;;;10.23;74.64;99628.31;5033746;28;20112;-58
2021/11/19 07:41:23;;;;;;;8.20;5.90;;;;;;;10.25;75.26;99624.06;5038081;28;20028;-60
2021/11/19 07:43:49;;;;;;;7.93;5.43;;;;;;;10.28;75.46;99634.31;5041346;28;20148;-58
2021/11/19 07:46:19;;;;;;;7.70;5.60;;;;;;;10.26;75.10;99636.88;5036633;28;20049;-59
2021/11/19 07:48:44;;;;;;;7.50;4.90;;;;;;;10.30;74.53;99627.47;5038427;28;20031;-57
2021/11/19 07:51:17;;;;;;;8.43;6.72;;;;;;;10.33;75.23;99633.44;5042037;28;20026;-58
2021/11/19 07:53:43;;;;;;;6.40;5.10;;;;;;;10.27;74.96;99627.50;5039759;28;20395;-57
2021/11/19 07:56:10;;;;;;;6.05;5.13;;;;;;;10.32;73.27;99630.88;5036379;28;20033;-59
2021/11/19 07:58:36;;;;;;;4.30;3.78;;;;;;;10.37;72.81;99637.72;5036555;28;20021;-59
2021/11/19 08:01:03;;;;;;;5.65;5.00;;;;;;;10.37;73.32;99632.56;5038469;28;20087;-57
2021/11/19 08:03:29;;;;;;;5.85;4.68;;;;;;;10.26;74.08;99643.72;5035938;28;20075;-58
2021/11/19 08:05:59;;;;;;;5.28;4.43;;;;;;;10.33;73.78;99641.13;5034352;28;20045;-58
2021/11/19 08:08:27;;;;;;;8.68;6.80;;;;;;;10.42;72.52;99650.50;5031862;28;20029;-59
2021/11/19 08:10:52;;;;;;;7.40;5.70;;;;;;;10.45;73.14;99656.50;5035464;28;20025;-59
2021/11/19 08:13:18;;;;;;;7.00;5.03;;;;;;;10.33;74.83;99653.94;5033800;28;20051;-59
2021/11/19 08:15:44;;;;;;;5.65;4.85;;;;;;;10.31;75.87;99644.56;5031884;28;20025;-58
2021/11/19 08:18:18;;;;;;;6.63;5.50;;;;;;;10.28;77.14;99645.41;5033680;28;20033;-59
2021/11/19 08:20:46;;;;;;;6.57;5.60;;;;;;;10.27;77.69;99648.00;5035890;28;20040;-56
2021/11/19 08:23:19;;;;;;;5.80;4.63;;;;;;;10.26;76.92;99648.84;5034714;28;20033;-58
2021/11/19 08:25:45;;;;;;;5.20;4.50;;;;;;;10.14;78.45;99654.81;5047260;28;20029;-59
2021/11/19 08:28:11;;;;;;;5.82;4.15;;;;;;;10.23;78.48;99654.81;5033381;28;20028;-57
2021/11/19 08:30:41;;;;;;;5.95;5.07;;;;;;;10.34;78.76;99655.66;5036368;28;20037;-59
2021/11/19 08:33:08;;;;;;;5.28;4.60;;;;;;;10.31;79.06;99652.25;5032228;28;20021;-58
2021/11/19 08:35:35;;;;;;;6.70;5.47;;;;;;;10.42;77.74;99650.50;5030459;28;20029;-56
2021/11/19 08:38:03;;;;;;;6.28;5.00;;;;;;;10.48;76.85;99650.53;5034351;28;20157;-59
2021/11/19 08:40:29;;;;;;;6.65;4.82;;;;;;;10.50;75.41;99639.38;5034903;28;20036;-59
2021/11/19 08:42:55;;;;;;;4.63;4.10;;;;;;;10.64;74.32;99641.06;5032909;28;20037;-57
2021/11/19 08:45:23;;;;;;;5.60;4.00;;;;;;;10.78;71.78;99641.84;5031963;28;20053;-59
2021/11/19 08:47:53;;;;;;;6.47;4.90;;;;;;;10.91;69.55;99640.94;5033961;28;20052;-59
2021/11/19 08:50:23;;;;;;;5.03;4.13;;;;;;;11.02;69.56;99646.03;5036447;28;20079;-57
2021/11/19 08:52:48;;;;;;;4.60;4.20;;;;;;;11.03;71.00;99647.75;5036275;28;20036;-58
2021/11/19 08:55:16;;;;;;;5.53;3.65;;;;;;;11.09;67.82;99653.69;5036051;28;20387;-56
2021/11/19 08:57:42;;;;;;;4.85;3.97;;;;;;;11.10;69.02;99650.28;5039659;28;20369;-59
2021/11/19 09:00:12;;;;;;;6.13;4.63;;;;;;;11.17;64.91;99651.09;5038162;28;20036;-58
2021/11/19 09:02:37;;;;;;;5.28;4.53;;;;;;;11.24;63.71;99648.50;5035507;28;20594;-59
2021/11/19 09:05:05;;;;;;;3.80;3.38;;;;;;;11.31;62.29;99650.16;5036903;28;20055;-59
2021/11/19 09:07:32;;;;;;;7.00;3.58;;;;;;;11.40;62.10;99646.69;5038626;28;20029;-59
2021/11/19 09:10:03;;;;;;;3.60;3.30;;;;;;;11.61;61.13;99646.56;5038269;28;20141;-59
2021/11/19 09:12:29;;;;;;;5.47;3.95;;;;;;;11.66;60.33;99637.13;5037384;28;20031;-58
2021/11/19 09:14:55;;;;;;;4.35;3.17;;;;;;;11.72;59.45;99641.38;5041757;28;20410;-58
2021/11/19 09:17:24;;;;;;;7.43;3.55;;;;;;;11.80;60.01;99637.88;5037413;28;20029;-60
2021/11/19 09:19:55;;;;;;;6.72;5.28;;;;;;;11.95;58.53;99649.75;5041460;28;20374;-59
2021/11/19 09:22:21;;;;;;;5.10;3.63;;;;;;;12.18;58.61;99631.53;5039649;28;20163;-59
2021/11/19 09:24:46;;;;;;;3.60;3.30;;;;;;;12.24;57.20;99640.06;5042041;28;20072;-58
2021/11/19 09:27:16;;;;;;;4.55;4.10;;;;;;;12.15;56.95;99650.44;5039591;28;20032;-58
2021/11/19 09:29:44;;;;;;;5.38;3.67;;;;;;;11.89;57.84;99645.50;5036943;28;20034;-59
2021/11/19 09:32:11;;;;;;;5.47;3.70;;;;;;;12.00;58.25;99645.44;5044492;28;20542;-59
2021/11/19 09:34:39;;;;;;;4.22;3.42;;;;;;;11.95;58.75;99642.06;5037217;28;20705;-60
2021/11/19 09:37:10;;;;;;;5.50;3.70;;;;;;;12.00;58.67;99648.00;5036288;28;20148;-60
2021/11/19 09:39:36;;;;;;;5.15;3.75;;;;;;;11.89;58.55;99645.50;5041083;28;20437;-60
2021/11/19 09:42:24;;;;;;;4.03;3.63;;;;;;;11.73;59.18;99638.78;5041247;28;20136;-60
2021/11/19 09:45:20;;;;;;;4.07;3.58;;;;;;;11.86;59.55;99640.41;5037499;28;20053;-59
2021/11/19 09:47:45;;;;;;;;;;;;;;;11.91;59.09;99645.50;5040738;28;20025;-59
2021/11/19 09:50:49;;;;;;;3.33;3.03;;;;;;;12.05;58.38;99651.38;5036439;28;19920;-57
2021/11/19 09:53:43;;;;;;;4.50;3.15;;;;;;;12.01;58.20;99659.97;5027190;28;20057;-56
2021/11/19 09:56:36;;;;;;;4.50;2.75;;;;;;;12.12;57.56;99665.03;5040462;28;20021;-58
2021/11/19 09:59:35;;;;;;;4.28;3.88;;;;;;;12.00;59.90;99672.84;5033711;28;20446;-59
2021/11/19 10:02:23;;;;;;;3.88;3.47;;;;;;;11.83;60.62;99668.72;5034447;28;20040;-58
2021/11/19 10:05:22;;;;;;;3.70;3.20;;;;;;;11.74;61.48;99676.47;5041034;28;20052;-56
2021/11/19 10:08:09;;;;;;;5.28;4.13;;;;;;;11.92;61.44;99679.78;5040666;28;20349;-56
2021/11/19 10:10:55;;;;;;;3.63;3.20;;;;;;;11.67;62.02;99679.91;5035848;28;20438;-59
2021/11/19 10:13:31;;;;;;;7.18;4.10;;;;;;;11.55;62.55;99689.38;5040046;28;20103;-56
2021/11/19 10:16:02;;;;;;;4.80;4.10;;;;;;;11.58;63.25;99684.25;5043643;28;20037;-58
2021/11/19 10:18:34;;;;;;;4.47;3.88;;;;;;;11.57;62.29;99683.41;5039199;28;20087;-57
2021/11/19 10:21:04;;;;;;;5.03;3.50;;;;;;;11.49;62.34;99686.88;5034487;28;20033;-59
2021/11/19 10:23:36;;;;;;;4.28;3.88;;;;;;;11.44;63.28;99684.34;5036712;28;20038;-59
2021/11/19 10:26:07;;;;;;;4.70;3.67;;;;;;;11.44;64.13;99687.75;5035496;28;20405;-60
2021/11/19 10:28:38;;;;;;;5.25;4.15;;;;;;;11.39;63.98;99678.38;5032509;28;20125;-59
2021/11/19 10:31:06;;;;;;;4.80;4.40;;;;;;;11.35;65.03;99666.41;5034542;28;20447;-60
2021/11/19 10:34:10;;;;;;;5.63;4.40;;;;;;;11.38;64.38;99684.34;5035725;28;20045;-58
2021/11/19 10:36:38;;;;;;;4.25;3.83;;;;;;;11.21;63.72;99671.59;5033983;28;20417;-59
2021/11/19 10:39:42;;;;;;;4.40;3.88;;;;;;;11.30;64.14;99663.88;5031531;28;20022;-59
2021/11/19 10:42:10;;;;;;;4.05;3.53;;;;;;;11.33;63.81;99655.31;5033138;28;20029;-59
2021/11/19 10:45:01;;;;;;;4.25;3.70;;;;;;;11.34;63.87;99652.72;4991223;28;1219302;-60
2021/11/19 10:47:57;;;;;;;3.97;3.58;;;;;;;11.53;63.76;99630.34;5033969;28;20300;-60
2021/11/19 10:50:43;;;;;;;;;;;;;;;11.66;63.55;99620.84;5033018;28;20191;-59
2021/11/19 10:53:30;;;;;;;4.33;3.87;;;;;;;11.95;61.60;99597.50;5036098;28;19923;-60
2021/11/19 10:56:40;;;;;;;2.78;2.58;;;;;;;12.17;59.24;99581.88;5032679;28;20140;-60
2021/11/19 10:59:24;;;;;;;2.78;2.53;;;;;;;12.53;57.96;99588.31;4996031;28;20042;-59
2021/11/19 11:01:56;;;;;;;2.38;2.17;;;;;;;12.65;57.42;99582.19;4997539;28;20511;-61
2021/11/19 11:04:51;;;;;;;2.33;2.13;;;;;;;12.69;56.87;99596.72;5001624;28;20042;-61
2021/11/19 11:07:25;;;;;;;2.35;1.92;;;;;;;12.74;56.96;99580.34;4980685;28;20053;-58
2021/11/19 11:10:09;;;;;;;2.30;2.10;;;;;;;12.85;56.21;99582.81;5002767;28;20046;-61
2021/11/19 11:12:34;;;;;;;2.15;1.98;;;;;;;12.88;56.13;99585.31;5000964;28;20096;-61
2021/11/19 11:15:31;;;;;;;2.30;2.10;;;;;;;12.94;56.04;99582.69;4997885;28;20453;-60
2021/11/19 11:17:57;;;;;;;2.60;2.20;;;;;;;12.97;56.14;99581.78;4998567;28;20065;-57
2021/11/19 11:20:38;;;;;;;2.40;2.15;;;;;;;12.98;56.26;99565.47;4999358;28;20097;-60
2021/11/19 11:23:29;;;;;;;3.17;2.80;;;;;;;12.77;58.34;99548.59;4996579;28;20048;-58
2021/11/19 11:26:08;;;;;;;2.67;2.45;;;;;;;12.99;58.05;99562.00;4997178;28;20175;-58
2021/11/19 11:28:42;;;;;;;2.65;2.20;;;;;;;12.89;58.56;99540.72;4999823;28;20034;-58
2021/11/19 11:31:55;;;;;;;3.00;2.25;;;;;;;13.03;58.49;99548.22;5001665;28;20041;-58
2021/11/19 11:34:34;;;;;;;4.22;2.60;;;;;;;12.96;58.02;99551.75;5021196;28;20044;-56
2021/11/19 11:37:25;;;;;;;2.92;2.72;;;;;;;13.16;58.78;99547.19;5037771;28;20103;-57
2021/11/19 11:39:55;;;;;;;2.92;2.53;;;;;;;13.16;58.46;99550.63;5036490;28;20045;-58
2021/11/19 11:42:26;;;;;;;2.95;2.30;;;;;;;13.10;58.02;99560.16;5033448;28;20040;-56
2021/11/19 11:44:56;;;;;;;4.82;2.47;;;;;;;13.10;57.94;99558.47;5038560;28;20057;-58
2021/11/19 11:47:43;;;;;;;2.08;1.98;;;;;;;13.17;57.68;99557.50;5038965;28;20470;-58
2021/11/19 11:50:20;;;;;;;2.55;2.35;;;;;;;13.06;57.49;99574.78;5036175;28;20033;-60
2021/11/19 11:53:28;;;;;;;3.20;2.90;;;;;;;13.13;58.32;99552.41;5034642;28;20123;-56